Time;durP1;ratioP1;P1;durP2;ratioP2;P2;SDS_P1;SDS_P2;PMS_P1;PMS_P2;Temp;Humidity;BMP_temperature;BMP_pressure;BME280_temperature;BME280_humidity;BME280_pressure;Samples;Min_cycle;Max_cycle;Signal;HPM_P1;HPM_P2
2023/07/28 00:01:38;;;;;;;0.30;0.20;;;;;;;;;;5105183;27;41744;-69
2023/07/28 00:04:09;;;;;;;0.30;0.30;;;;;;;;;;5106126;27;42614;-70
2023/07/28 00:06:37;;;;;;;0.30;0.30;;;;;;;;;;5099179;27;41939;-69
2023/07/28 00:09:06;;;;;;;0.30;0.30;;;;;;;;;;5090800;28;42269;-69
2023/07/28 00:11:34;;;;;;;0.20;0.20;;;;;;;;;;5107355;28;42141;-69
2023/07/28 00:14:03;;;;;;;0.20;0.20;;;;;;;;;;5110175;27;42412;-69
2023/07/28 00:16:31;;;;;;;0.20;0.20;;;;;;;;;;5111319;27;42406;-69
2023/07/28 00:19:00;;;;;;;0.32;0.30;;;;;;;;;;5110297;27;42263;-69
2023/07/28 00:21:28;;;;;;;0.20;0.20;;;;;;;;;;5109322;27;41033;-69
2023/07/28 00:23:56;;;;;;;0.30;0.30;;;;;;;;;;5091765;27;42599;-69
2023/07/28 00:26:24;;;;;;;0.93;0.20;;;;;;;;;;5090248;28;41867;-69
2023/07/28 00:28:52;;;;;;;0.20;0.20;;;;;;;;;;5089659;28;41249;-70
2023/07/28 00:31:21;;;;;;;0.30;0.20;;;;;;;;;;5090141;28;42116;-70
2023/07/28 00:33:49;;;;;;;0.47;0.22;;;;;;;;;;5089980;28;41259;-69
2023/07/28 00:36:17;;;;;;;0.25;0.20;;;;;;;;;;5089339;28;42332;-69
2023/07/28 00:38:45;;;;;;;0.32;0.20;;;;;;;;;;5088860;28;32129;-69
2023/07/28 00:41:13;;;;;;;0.30;0.30;;;;;;;;;;5090375;28;41831;-69
2023/07/28 00:43:40;;;;;;;0.35;0.22;;;;;;;;;;5089144;28;42064;-69
2023/07/28 00:46:09;;;;;;;0.20;0.10;;;;;;;;;;5090182;28;42259;-70
2023/07/28 00:48:38;;;;;;;0.20;0.20;;;;;;;;;;5104911;28;39999;-69
2023/07/28 00:51:06;;;;;;;0.30;0.30;;;;;;;;;;5087838;28;42542;-69
2023/07/28 00:53:34;;;;;;;0.15;0.15;;;;;;;;;;5087995;28;40716;-69
2023/07/28 00:56:02;;;;;;;0.20;0.20;;;;;;;;;;5089363;28;42024;-69
2023/07/28 00:58:30;;;;;;;0.20;0.20;;;;;;;;;;5102277;28;41655;-69
2023/07/28 01:00:58;;;;;;;0.20;0.20;;;;;;;;;;5110174;28;41751;-69
2023/07/28 01:03:26;;;;;;;0.20;0.20;;;;;;;;;;5108645;28;42361;-69
2023/07/28 01:05:57;;;;;;;0.98;0.20;;;;;;;;;;5108954;28;41643;-69
2023/07/28 01:08:28;;;;;;;0.47;0.20;;;;;;;;;;5102736;27;40275;-69
2023/07/28 01:10:56;;;;;;;0.30;0.30;;;;;;;;;;5108947;28;43227;-69
2023/07/28 01:13:24;;;;;;;0.20;0.20;;;;;;;;;;5107561;28;42331;-69
2023/07/28 01:15:52;;;;;;;0.40;0.30;;;;;;;;;;5110137;27;42353;-69
2023/07/28 01:18:20;;;;;;;0.15;0.15;;;;;;;;;;5107862;27;42096;-69
2023/07/28 01:20:48;;;;;;;0.20;0.20;;;;;;;;;;5109841;27;41298;-69
2023/07/28 01:23:19;;;;;;;0.30;0.30;;;;;;;;;;5108050;28;41428;-69
2023/07/28 01:25:50;;;;;;;0.15;0.15;;;;;;;;;;5107557;28;39964;-69
2023/07/28 01:28:20;;;;;;;0.20;0.20;;;;;;;;;;5108513;28;42624;-69
2023/07/28 01:30:48;;;;;;;0.20;0.20;;;;;;;;;;5108200;28;42128;-68
2023/07/28 01:33:16;;;;;;;0.35;0.20;;;;;;;;;;5092148;28;42086;-69
2023/07/28 01:35:44;;;;;;;0.20;0.20;;;;;;;;;;5089569;28;41806;-69
2023/07/28 01:38:13;;;;;;;0.45;0.20;;;;;;;;;;5108646;28;43131;-69
2023/07/28 01:40:41;;;;;;;0.52;0.20;;;;;;;;;;5108833;28;41386;-69
2023/07/28 01:43:09;;;;;;;0.30;0.20;;;;;;;;;;5110050;28;41820;-69
2023/07/28 01:45:38;;;;;;;0.20;0.20;;;;;;;;;;5108002;28;41267;-69
2023/07/28 01:48:08;;;;;;;0.68;0.20;;;;;;;;;;5106892;28;42658;-69
2023/07/28 01:50:36;;;;;;;0.20;0.20;;;;;;;;;;5088162;28;43046;-69
2023/07/28 01:53:04;;;;;;;0.20;0.20;;;;;;;;;;5088112;28;41912;-69
2023/07/28 01:55:32;;;;;;;0.93;0.20;;;;;;;;;;5087136;28;40469;-69
2023/07/28 01:58:01;;;;;;;0.20;0.20;;;;;;;;;;5087153;28;41625;-69
2023/07/28 02:00:29;;;;;;;0.20;0.20;;;;;;;;;;5104807;28;41243;-68
2023/07/28 02:03:01;;;;;;;0.10;0.10;;;;;;;;;;5109378;27;41774;-69
2023/07/28 02:05:30;;;;;;;0.22;0.22;;;;;;;;;;5107805;28;42985;-69
2023/07/28 02:07:58;;;;;;;0.20;0.10;;;;;;;;;;5107902;28;41659;-69
2023/07/28 02:10:27;;;;;;;0.95;0.30;;;;;;;;;;5108408;28;42094;-68
2023/07/28 02:12:55;;;;;;;0.35;0.30;;;;;;;;;;5097986;28;41430;-69
2023/07/28 02:15:22;;;;;;;0.28;0.20;;;;;;;;;;5103344;28;40738;-68
2023/07/28 02:17:50;;;;;;;0.20;0.20;;;;;;;;;;5093160;28;42769;-68
2023/07/28 02:20:20;;;;;;;0.50;0.20;;;;;;;;;;5105178;28;40376;-69
2023/07/28 02:22:48;;;;;;;0.30;0.30;;;;;;;;;;5108174;28;41527;-69
2023/07/28 02:25:16;;;;;;;0.20;0.20;;;;;;;;;;5108355;27;42830;-68
2023/07/28 02:27:45;;;;;;;0.13;0.13;;;;;;;;;;5106324;28;40954;-68
2023/07/28 02:30:12;;;;;;;0.20;0.20;;;;;;;;;;5107137;28;41752;-68
2023/07/28 02:32:40;;;;;;;0.20;0.20;;;;;;;;;;5106647;28;41465;-68
2023/07/28 02:35:10;;;;;;;0.17;0.17;;;;;;;;;;5107479;28;41897;-68
2023/07/28 02:37:40;;;;;;;0.70;0.20;;;;;;;;;;5106683;28;42087;-68
2023/07/28 02:40:09;;;;;;;0.25;0.20;;;;;;;;;;5107941;28;41258;-69
2023/07/28 02:42:37;;;;;;;0.20;0.20;;;;;;;;;;5103715;28;41775;-69
2023/07/28 02:45:05;;;;;;;0.20;0.20;;;;;;;;;;5096037;28;41473;-69
2023/07/28 02:47:33;;;;;;;0.25;0.25;;;;;;;;;;5108224;28;42462;-68
2023/07/28 02:50:01;;;;;;;0.10;0.10;;;;;;;;;;5107050;28;41680;-68
2023/07/28 02:52:29;;;;;;;0.52;0.38;;;;;;;;;;5107907;28;41800;-69
2023/07/28 02:54:59;;;;;;;0.20;0.20;;;;;;;;;;5105138;28;40403;-68
2023/07/28 02:57:28;;;;;;;0.40;0.40;;;;;;;;;;5104562;28;40855;-68
2023/07/28 02:59:56;;;;;;;0.30;0.30;;;;;;;;;;5107811;28;41016;-69
2023/07/28 03:02:24;;;;;;;0.20;0.20;;;;;;;;;;5122707;27;41141;-68
2023/07/28 03:04:54;;;;;;;0.20;0.20;;;;;;;;;;5105875;28;41973;-68
2023/07/28 03:07:40;;;;;;;0.30;0.30;;;;;;;;;;5107620;28;42156;-69
2023/07/28 03:10:16;;;;;;;0.20;0.20;;;;;;;;;;5105784;28;41415;-69
2023/07/28 03:12:44;;;;;;;0.30;0.25;;;;;;;;;;5123140;27;40402;-68
2023/07/28 03:15:12;;;;;;;0.63;0.20;;;;;;;;;;5106020;28;40151;-68
2023/07/28 03:17:40;;;;;;;0.20;0.20;;;;;;;;;;5106613;28;42256;-68
2023/07/28 03:20:09;;;;;;;0.20;0.20;;;;;;;;;;5105086;28;40958;-69
2023/07/28 03:22:37;;;;;;;0.40;0.25;;;;;;;;;;5105391;28;41394;-69
2023/07/28 03:25:05;;;;;;;0.30;0.30;;;;;;;;;;5101740;28;41476;-68
2023/07/28 03:27:34;;;;;;;0.17;0.17;;;;;;;;;;5116396;27;39852;-68
2023/07/28 03:30:02;;;;;;;0.95;0.40;;;;;;;;;;5107330;28;41501;-68
2023/07/28 03:32:30;;;;;;;0.20;0.20;;;;;;;;;;5084352;28;42242;-68
2023/07/28 03:34:59;;;;;;;0.28;0.20;;;;;;;;;;5110323;27;20732;-68
2023/07/28 03:37:29;;;;;;;0.30;0.30;;;;;;;;;;5105246;28;40930;-68
2023/07/28 03:39:57;;;;;;;0.40;0.30;;;;;;;;;;5106018;28;42149;-68
2023/07/28 03:42:35;;;;;;;0.28;0.28;;;;;;;;;;5105496;28;41205;-68
2023/07/28 03:45:03;;;;;;;0.20;0.20;;;;;;;;;;5106876;27;43422;-68
2023/07/28 03:47:31;;;;;;;0.20;0.20;;;;;;;;;;5097141;28;41885;-68
2023/07/28 03:49:59;;;;;;;1.75;0.30;;;;;;;;;;5085272;28;40690;-68
2023/07/28 03:52:27;;;;;;;0.30;0.30;;;;;;;;;;5083444;28;40815;-69
2023/07/28 03:54:56;;;;;;;0.20;0.20;;;;;;;;;;5087174;28;41355;-68
2023/07/28 03:57:24;;;;;;;0.30;0.30;;;;;;;;;;5087048;28;42352;-68
2023/07/28 03:59:53;;;;;;;0.30;0.20;;;;;;;;;;5095133;28;40290;-68
2023/07/28 04:02:21;;;;;;;0.28;0.28;;;;;;;;;;5106819;28;42447;-69
2023/07/28 04:04:53;;;;;;;0.20;0.20;;;;;;;;;;5105325;28;41117;-69
2023/07/28 04:07:22;;;;;;;0.40;0.40;;;;;;;;;;5104175;28;40205;-69
2023/07/28 04:09:49;;;;;;;0.30;0.30;;;;;;;;;;5106432;28;41349;-68
2023/07/28 04:12:17;;;;;;;0.25;0.25;;;;;;;;;;5105397;28;40924;-68
2023/07/28 04:14:45;;;;;;;1.13;0.20;;;;;;;;;;5106121;28;40848;-68
2023/07/28 04:17:15;;;;;;;0.25;0.25;;;;;;;;;;5106194;28;40323;-69
2023/07/28 04:19:43;;;;;;;0.30;0.20;;;;;;;;;;5106333;28;41557;-68
2023/07/28 04:22:11;;;;;;;0.30;0.30;;;;;;;;;;5106385;28;42796;-68
2023/07/28 04:24:39;;;;;;;0.60;0.30;;;;;;;;;;5104268;28;40353;-68
2023/07/28 04:27:07;;;;;;;0.25;0.20;;;;;;;;;;5090186;28;40974;-68
2023/07/28 04:29:35;;;;;;;0.20;0.20;;;;;;;;;;5091541;28;40260;-68
2023/07/28 04:32:06;;;;;;;0.30;0.30;;;;;;;;;;5103886;28;41226;-68
2023/07/28 04:34:37;;;;;;;0.30;0.30;;;;;;;;;;5096343;28;39863;-69
2023/07/28 04:37:16;;;;;;;0.30;0.30;;;;;;;;;;5104958;28;40259;-68
2023/07/28 04:39:57;;;;;;;0.30;0.30;;;;;;;;;;5106273;27;43016;-68
2023/07/28 04:42:30;;;;;;;0.40;0.30;;;;;;;;;;5103765;28;41378;-68
2023/07/28 04:44:58;;;;;;;0.30;0.28;;;;;;;;;;5104781;28;41990;-68
2023/07/28 04:47:26;;;;;;;0.30;0.30;;;;;;;;;;5106236;28;41594;-68
2023/07/28 04:49:55;;;;;;;0.30;0.30;;;;;;;;;;5121108;27;40237;-68
2023/07/28 04:52:43;;;;;;;0.50;0.30;;;;;;;;;;5107489;28;41809;-68
2023/07/28 04:55:37;;;;;;;0.60;0.40;;;;;;;;;;5090977;28;42518;-68
2023/07/28 04:58:05;;;;;;;0.30;0.30;;;;;;;;;;5108670;28;40602;-68
2023/07/28 05:00:45;;;;;;;0.22;0.22;;;;;;;;;;5108336;28;41627;-68
2023/07/28 05:03:13;;;;;;;0.30;0.30;;;;;;;;;;5107053;28;40936;-68
2023/07/28 05:05:49;;;;;;;0.82;0.40;;;;;;;;;;5124801;27;40720;-69
2023/07/28 05:08:17;;;;;;;0.40;0.30;;;;;;;;;;5108387;28;40876;-68
2023/07/28 05:10:45;;;;;;;0.45;0.30;;;;;;;;;;5107022;28;40679;-69
2023/07/28 05:13:14;;;;;;;0.47;0.40;;;;;;;;;;5107883;28;40810;-68
2023/07/28 05:15:51;;;;;;;0.50;0.40;;;;;;;;;;5107984;28;40927;-68
2023/07/28 05:18:36;;;;;;;0.45;0.30;;;;;;;;;;5107464;28;42347;-69
2023/07/28 05:21:34;;;;;;;0.50;0.35;;;;;;;;;;5098001;28;41751;-69
2023/07/28 05:24:03;;;;;;;0.50;0.30;;;;;;;;;;5102001;28;41432;-68
2023/07/28 05:26:33;;;;;;;0.30;0.30;;;;;;;;;;5107284;28;39863;-68
2023/07/28 05:29:01;;;;;;;0.68;0.45;;;;;;;;;;5107921;28;40846;-69
2023/07/28 05:31:29;;;;;;;0.45;0.30;;;;;;;;;;5102645;28;40211;-68
2023/07/28 05:33:57;;;;;;;0.57;0.38;;;;;;;;;;5107238;28;43406;-69
2023/07/28 05:36:25;;;;;;;1.20;0.60;;;;;;;;;;5096301;27;42375;-68
2023/07/28 05:38:59;;;;;;;0.40;0.35;;;;;;;;;;5107741;28;41051;-69
2023/07/28 05:41:37;;;;;;;0.55;0.40;;;;;;;;;;5106784;28;42268;-68
2023/07/28 05:44:05;;;;;;;0.55;0.40;;;;;;;;;;5107962;28;41063;-68
2023/07/28 05:46:33;;;;;;;0.50;0.40;;;;;;;;;;5107168;28;40370;-69
2023/07/28 05:49:01;;;;;;;0.40;0.30;;;;;;;;;;5107619;28;40367;-69
2023/07/28 05:51:29;;;;;;;0.25;0.25;;;;;;;;;;5106199;28;41329;-69
2023/07/28 05:53:57;;;;;;;0.50;0.30;;;;;;;;;;5107868;28;40710;-68
2023/07/28 05:56:27;;;;;;;0.70;0.43;;;;;;;;;;5108835;28;41127;-69
2023/07/28 05:58:55;;;;;;;0.38;0.38;;;;;;;;;;5108412;28;41439;-69
2023/07/28 06:01:25;;;;;;;0.60;0.40;;;;;;;;;;5108094;28;41970;-69
2023/07/28 06:04:11;;;;;;;1.00;0.45;;;;;;;;;;5109152;27;42835;-68
2023/07/28 06:06:45;;;;;;;0.32;0.32;;;;;;;;;;5106262;28;40490;-69
2023/07/28 06:09:14;;;;;;;0.30;0.30;;;;;;;;;;5089076;28;41855;-69
2023/07/28 06:11:45;;;;;;;0.30;0.30;;;;;;;;;;5103232;28;41445;-69
2023/07/28 06:14:13;;;;;;;0.30;0.30;;;;;;;;;;5103117;28;41776;-69
2023/07/28 06:16:41;;;;;;;0.45;0.40;;;;;;;;;;5088186;28;40984;-69
2023/07/28 06:19:09;;;;;;;0.63;0.40;;;;;;;;;;5118172;27;41345;-69
2023/07/28 06:21:39;;;;;;;0.52;0.30;;;;;;;;;;5105264;28;43264;-69
2023/07/28 06:24:07;;;;;;;0.60;0.40;;;;;;;;;;5108499;28;41031;-69
2023/07/28 06:26:35;;;;;;;0.43;0.40;;;;;;;;;;5105968;28;40378;-68
2023/07/28 06:29:04;;;;;;;0.40;0.40;;;;;;;;;;5108648;27;43098;-68
2023/07/28 06:31:32;;;;;;;0.40;0.38;;;;;;;;;;5107500;28;41462;-69
2023/07/28 06:34:01;;;;;;;0.40;0.40;;;;;;;;;;5123450;27;42396;-68
2023/07/28 06:36:29;;;;;;;0.68;0.40;;;;;;;;;;5100432;28;39751;-69
2023/07/28 06:38:59;;;;;;;0.40;0.40;;;;;;;;;;5098245;28;41846;-69
2023/07/28 06:41:27;;;;;;;0.50;0.47;;;;;;;;;;5115837;27;42603;-69
2023/07/28 06:44:00;;;;;;;0.52;0.47;;;;;;;;;;5111981;27;41162;-68
2023/07/28 06:46:30;;;;;;;0.38;0.30;;;;;;;;;;5109503;27;41894;-69
2023/07/28 06:48:59;;;;;;;0.25;0.25;;;;;;;;;;5107657;28;42179;-69
2023/07/28 06:51:27;;;;;;;0.60;0.50;;;;;;;;;;5094195;28;40366;-69
2023/07/28 06:53:56;;;;;;;0.45;0.40;;;;;;;;;;5108761;28;42255;-69
2023/07/28 06:56:24;;;;;;;0.52;0.40;;;;;;;;;;5100922;28;41458;-68
2023/07/28 06:58:52;;;;;;;0.45;0.38;;;;;;;;;;5101285;28;42517;-68
2023/07/28 07:01:40;;;;;;;0.65;0.52;;;;;;;;;;5104462;28;40917;-68
2023/07/28 07:04:09;;;;;;;0.68;0.63;;;;;;;;;;5108135;28;41137;-68
2023/07/28 07:06:37;;;;;;;0.60;0.40;;;;;;;;;;5105422;28;40202;-68
2023/07/28 07:09:06;;;;;;;0.50;0.50;;;;;;;;;;5105669;28;40573;-68
2023/07/28 07:11:34;;;;;;;0.57;0.40;;;;;;;;;;5106373;27;41721;-69
2023/07/28 07:14:02;;;;;;;0.50;0.40;;;;;;;;;;5108221;28;42628;-68
2023/07/28 07:16:30;;;;;;;0.40;0.40;;;;;;;;;;5120783;27;41000;-68
2023/07/28 07:19:00;;;;;;;0.30;0.30;;;;;;;;;;5107868;27;41511;-67
2023/07/28 07:21:28;;;;;;;0.50;0.40;;;;;;;;;;5106546;27;42785;-67
2023/07/28 07:23:56;;;;;;;0.40;0.40;;;;;;;;;;5102245;27;42278;-67
2023/07/28 07:26:26;;;;;;;0.50;0.40;;;;;;;;;;5090555;28;41941;-66
2023/07/28 07:28:54;;;;;;;5.70;2.90;;;;;;;;;;5092671;27;41947;-66
2023/07/28 07:31:23;;;;;;;8.35;4.25;;;;;;;;;;5101660;28;41769;-65
2023/07/28 07:33:51;;;;;;;8.90;4.82;;;;;;;;;;5088570;27;42227;-65
2023/07/28 07:36:20;;;;;;;4.80;4.03;;;;;;;;;;5098100;28;42007;-65
2023/07/28 07:38:48;;;;;;;2.28;1.98;;;;;;;;;;5106370;27;41500;-68
2023/07/28 07:41:19;;;;;;;7.20;3.80;;;;;;;;;;5107307;27;41979;-64
2023/07/28 07:43:47;;;;;;;9.95;7.18;;;;;;;;;;5103803;27;41183;-69
2023/07/28 07:46:15;;;;;;;10.32;7.97;;;;;;;;;;5098613;27;42659;-64
2023/07/28 07:48:44;;;;;;;13.10;8.70;;;;;;;;;;5103986;27;41815;-66
2023/07/28 07:51:12;;;;;;;12.20;7.85;;;;;;;;;;5096297;28;41016;-66
2023/07/28 07:53:41;;;;;;;11.52;8.32;;;;;;;;;;5095768;27;42061;-66
2023/07/28 07:56:09;;;;;;;14.85;9.02;;;;;;;;;;5095252;28;43218;-65
2023/07/28 07:58:37;;;;;;;13.52;9.07;;;;;;;;;;5095961;27;41504;-66
2023/07/28 08:01:05;;;;;;;14.90;8.95;;;;;;;;;;5107280;27;42154;-62
2023/07/28 08:03:33;;;;;;;11.30;8.07;;;;;;;;;;5106930;27;41924;-67
2023/07/28 08:06:01;;;;;;;11.93;8.85;;;;;;;;;;5106376;27;42296;-66
2023/07/28 08:08:29;;;;;;;12.73;7.75;;;;;;;;;;5106157;27;42077;-67
2023/07/28 08:10:59;;;;;;;14.10;8.00;;;;;;;;;;5103514;27;41593;-67
2023/07/28 08:13:28;;;;;;;10.38;7.57;;;;;;;;;;5099440;27;41618;-66
2023/07/28 08:15:56;;;;;;;11.40;7.07;;;;;;;;;;5104163;28;42607;-67
2023/07/28 08:18:24;;;;;;;14.55;9.45;;;;;;;;;;5106804;27;41267;-67
2023/07/28 08:20:52;;;;;;;18.02;10.77;;;;;;;;;;5105986;27;42325;-67
2023/07/28 08:23:20;;;;;;;13.60;10.23;;;;;;;;;;5106728;28;41906;-67
2023/07/28 08:25:48;;;;;;;16.02;9.75;;;;;;;;;;5104204;27;41766;-67
2023/07/28 08:28:17;;;;;;;11.82;9.18;;;;;;;;;;5106407;27;43072;-67
2023/07/28 08:30:46;;;;;;;17.60;10.05;;;;;;;;;;5107301;27;42108;-67
2023/07/28 08:33:14;;;;;;;14.52;10.15;;;;;;;;;;5108169;28;41520;-67
2023/07/28 08:35:42;;;;;;;12.80;10.43;;;;;;;;;;5107542;28;43170;-67
2023/07/28 08:38:12;;;;;;;19.15;9.52;;;;;;;;;;5108634;27;41593;-67
2023/07/28 08:40:40;;;;;;;12.25;9.35;;;;;;;;;;5107937;27;42312;-67
2023/07/28 08:43:08;;;;;;;11.98;9.13;;;;;;;;;;5110491;27;42002;-68
2023/07/28 08:45:37;;;;;;;14.23;9.35;;;;;;;;;;5109310;27;42585;-66
2023/07/28 08:48:05;;;;;;;13.50;9.20;;;;;;;;;;5110168;27;42813;-67
2023/07/28 08:50:34;;;;;;;14.65;9.20;;;;;;;;;;5109207;27;41015;-67
2023/07/28 08:53:02;;;;;;;14.48;9.68;;;;;;;;;;5110853;27;42390;-67
2023/07/28 08:55:30;;;;;;;12.82;9.45;;;;;;;;;;5096888;27;42302;-67
2023/07/28 08:57:58;;;;;;;12.43;8.68;;;;;;;;;;5093575;28;40855;-65
2023/07/28 09:00:25;;;;;;;12.15;7.75;;;;;;;;;;5106966;28;43265;-70
2023/07/28 09:02:56;;;;;;;11.52;7.63;;;;;;;;;;5103580;27;43042;-65
2023/07/28 09:05:24;;;;;;;11.82;8.65;;;;;;;;;;5099562;27;40806;-62
2023/07/28 09:07:52;;;;;;;12.57;8.38;;;;;;;;;;5098389;27;42539;-62
2023/07/28 09:10:20;;;;;;;11.57;8.85;;;;;;;;;;5100231;27;41180;-63
2023/07/28 09:12:48;;;;;;;11.20;8.75;;;;;;;;;;5098798;27;42623;-62
2023/07/28 09:15:17;;;;;;;12.07;8.63;;;;;;;;;;5102719;27;42074;-62
2023/07/28 09:17:45;;;;;;;11.50;8.85;;;;;;;;;;5107420;27;41536;-62
2023/07/28 09:20:17;;;;;;;10.45;7.55;;;;;;;;;;5090070;27;42997;-65
2023/07/28 09:22:46;;;;;;;10.20;8.20;;;;;;;;;;5093647;28;42520;-65
2023/07/28 09:25:14;;;;;;;12.52;8.50;;;;;;;;;;5110108;27;41058;-66
2023/07/28 09:27:44;;;;;;;12.80;8.50;;;;;;;;;;5109342;27;42382;-66
2023/07/28 09:30:16;;;;;;;10.57;8.68;;;;;;;;;;5108213;27;42062;-65
2023/07/28 09:32:47;;;;;;;8.93;7.45;;;;;;;;;;5108947;27;41753;-67
2023/07/28 09:35:16;;;;;;;11.68;7.93;;;;;;;;;;5109856;27;42766;-64
2023/07/28 09:37:45;;;;;;;12.18;8.50;;;;;;;;;;5108058;27;41147;-64
2023/07/28 09:40:13;;;;;;;11.43;9.25;;;;;;;;;;5109334;27;42271;-64
2023/07/28 09:42:41;;;;;;;14.25;9.40;;;;;;;;;;5109411;27;41813;-65
2023/07/28 09:45:10;;;;;;;14.10;10.20;;;;;;;;;;5109090;27;41112;-64
2023/07/28 09:47:54;;;;;;;12.25;9.07;;;;;;;;;;5109611;27;42542;-64
2023/07/28 09:50:24;;;;;;;12.40;8.60;;;;;;;;;;5108412;27;41986;-63
2023/07/28 09:52:54;;;;;;;13.23;8.95;;;;;;;;;;5109509;27;41281;-63
2023/07/28 09:55:22;;;;;;;14.48;8.88;;;;;;;;;;5109342;27;42453;-64
2023/07/28 09:57:51;;;;;;;10.43;9.00;;;;;;;;;;5108059;27;42894;-64
2023/07/28 10:00:19;;;;;;;11.23;9.05;;;;;;;;;;5108712;27;41619;-64
2023/07/28 10:02:47;;;;;;;9.60;8.23;;;;;;;;;;5108945;27;42227;-64
2023/07/28 10:05:15;;;;;;;12.02;7.68;;;;;;;;;;5108636;27;42340;-64
2023/07/28 10:07:45;;;;;;;9.70;8.00;;;;;;;;;;5108617;27;42738;-64
2023/07/28 10:10:14;;;;;;;10.13;7.85;;;;;;;;;;5109904;27;42208;-64
2023/07/28 10:12:43;;;;;;;11.00;8.10;;;;;;;;;;5107884;27;42290;-64
2023/07/28 10:15:15;;;;;;;11.43;8.88;;;;;;;;;;5109270;27;43086;-64
2023/07/28 10:17:47;;;;;;;11.30;8.20;;;;;;;;;;5108569;27;42068;-64
2023/07/28 10:20:34;;;;;;;10.52;7.78;;;;;;;;;;5108166;27;41500;-64
2023/07/28 10:23:07;;;;;;;10.48;8.02;;;;;;;;;;5107830;28;42152;-64
2023/07/28 10:25:36;;;;;;;10.82;7.90;;;;;;;;;;5107804;27;41401;-65
2023/07/28 10:28:04;;;;;;;9.05;6.85;;;;;;;;;;5108100;27;41120;-64
2023/07/28 10:30:37;;;;;;;8.65;6.88;;;;;;;;;;5096179;27;42132;-66
2023/07/28 10:33:05;;;;;;;9.70;7.57;;;;;;;;;;5092933;28;41113;-64
2023/07/28 10:35:34;;;;;;;10.68;6.80;;;;;;;;;;5096380;28;41865;-65
2023/07/28 10:38:20;;;;;;;9.05;7.38;;;;;;;;;;5088155;28;41362;-65
2023/07/28 10:40:50;;;;;;;12.07;7.03;;;;;;;;;;5086929;28;41304;-65
2023/07/28 10:43:18;;;;;;;7.57;6.35;;;;;;;;;;5087829;28;42260;-66
2023/07/28 10:45:46;;;;;;;7.53;6.25;;;;;;;;;;5088173;28;41308;-65
2023/07/28 10:48:14;;;;;;;8.63;6.75;;;;;;;;;;5087392;28;42404;-65
2023/07/28 10:50:42;;;;;;;8.63;6.30;;;;;;;;;;5104323;27;43120;-65
2023/07/28 10:53:10;;;;;;;6.78;5.45;;;;;;;;;;5107140;27;40816;-65
2023/07/28 10:55:38;;;;;;;9.48;6.07;;;;;;;;;;5096971;27;41676;-66
2023/07/28 10:58:08;;;;;;;8.93;6.00;;;;;;;;;;5107257;27;41384;-64
2023/07/28 11:00:39;;;;;;;9.32;6.07;;;;;;;;;;5087272;28;42141;-64
2023/07/28 11:03:08;;;;;;;9.48;6.30;;;;;;;;;;5087245;28;41548;-64
2023/07/28 11:05:37;;;;;;;9.00;6.25;;;;;;;;;;5087164;28;42438;-64
2023/07/28 11:08:07;;;;;;;8.00;6.35;;;;;;;;;;5086727;28;42188;-64
2023/07/28 11:10:36;;;;;;;8.55;6.32;;;;;;;;;;5087230;28;42178;-64
2023/07/28 11:13:04;;;;;;;9.60;6.72;;;;;;;;;;5088159;28;41599;-64
2023/07/28 11:15:53;;;;;;;7.03;5.40;;;;;;;;;;5087692;28;41648;-64
2023/07/28 11:18:21;;;;;;;8.65;6.40;;;;;;;;;;5088732;28;33393;-65
2023/07/28 11:20:49;;;;;;;7.15;5.60;;;;;;;;;;5107833;27;41859;-64
2023/07/28 11:23:17;;;;;;;8.40;6.53;;;;;;;;;;5107293;27;41860;-64
2023/07/28 11:25:47;;;;;;;7.85;5.72;;;;;;;;;;5108049;27;42306;-64
2023/07/28 11:28:15;;;;;;;7.35;6.10;;;;;;;;;;5107666;27;42641;-65
2023/07/28 11:30:43;;;;;;;6.10;5.50;;;;;;;;;;5106544;27;41477;-65
2023/07/28 11:33:13;;;;;;;6.40;5.45;;;;;;;;;;5107974;27;41521;-64
2023/07/28 11:35:41;;;;;;;6.03;5.43;;;;;;;;;;5107541;27;43881;-65
2023/07/28 11:38:09;;;;;;;7.25;6.13;;;;;;;;;;5107289;27;41760;-65
2023/07/28 11:40:37;;;;;;;6.50;5.60;;;;;;;;;;5107213;27;41664;-65
2023/07/28 11:43:05;;;;;;;6.55;5.53;;;;;;;;;;5107353;27;41951;-65
2023/07/28 11:45:33;;;;;;;7.22;5.47;;;;;;;;;;5107458;27;41250;-65
2023/07/28 11:48:01;;;;;;;7.20;5.47;;;;;;;;;;5107622;27;41274;-65
2023/07/28 11:50:32;;;;;;;6.90;5.30;;;;;;;;;;5106123;27;43123;-64
2023/07/28 11:53:00;;;;;;;8.90;6.10;;;;;;;;;;5107523;27;42249;-64
2023/07/28 11:55:27;;;;;;;5.65;5.07;;;;;;;;;;5107180;27;42172;-64
2023/07/28 11:57:55;;;;;;;6.97;5.35;;;;;;;;;;5106296;27;41906;-65
2023/07/28 12:00:27;;;;;;;6.50;5.15;;;;;;;;;;5107781;27;41376;-65
2023/07/28 12:03:01;;;;;;;6.10;5.45;;;;;;;;;;5107659;27;43165;-64
2023/07/28 12:05:30;;;;;;;7.60;6.00;;;;;;;;;;5106523;27;41901;-64
2023/07/28 12:07:59;;;;;;;6.25;5.65;;;;;;;;;;5107116;27;41777;-64
2023/07/28 12:10:27;;;;;;;6.88;5.95;;;;;;;;;;5106774;27;42081;-64
2023/07/28 12:12:58;;;;;;;6.20;5.55;;;;;;;;;;5106864;27;41202;-65
2023/07/28 12:15:30;;;;;;;5.53;5.00;;;;;;;;;;5106689;27;40958;-64
2023/07/28 12:18:05;;;;;;;7.07;5.45;;;;;;;;;;5107273;27;41653;-64
2023/07/28 12:20:38;;;;;;;7.55;5.95;;;;;;;;;;5106472;27;41847;-64
2023/07/28 12:23:07;;;;;;;6.88;5.60;;;;;;;;;;5107659;27;42232;-65
2023/07/28 12:25:37;;;;;;;9.02;6.32;;;;;;;;;;5106251;27;41141;-64
2023/07/28 12:28:06;;;;;;;7.05;5.97;;;;;;;;;;5106916;27;41431;-64
2023/07/28 12:30:45;;;;;;;6.97;5.75;;;;;;;;;;5105930;27;42102;-65
2023/07/28 12:33:13;;;;;;;6.38;5.78;;;;;;;;;;5106649;27;41885;-64
2023/07/28 12:35:45;;;;;;;6.32;5.43;;;;;;;;;;5107069;27;42420;-64
2023/07/28 12:38:17;;;;;;;7.57;5.90;;;;;;;;;;5106704;27;42627;-64
2023/07/28 12:40:48;;;;;;;6.63;5.95;;;;;;;;;;5105912;27;41175;-64
2023/07/28 12:43:19;;;;;;;8.80;5.80;;;;;;;;;;5106577;27;42318;-64
2023/07/28 12:45:50;;;;;;;7.88;6.20;;;;;;;;;;5106926;27;42640;-64
2023/07/28 12:48:20;;;;;;;8.23;5.53;;;;;;;;;;5105830;27;42238;-64
2023/07/28 12:50:50;;;;;;;7.25;6.45;;;;;;;;;;5106749;27;41882;-64
2023/07/28 12:53:31;;;;;;;6.88;6.15;;;;;;;;;;5106433;27;40830;-64
2023/07/28 12:55:59;;;;;;;6.47;5.82;;;;;;;;;;5107503;27;42698;-64
2023/07/28 12:58:28;;;;;;;6.07;5.40;;;;;;;;;;5106235;27;41704;-65
2023/07/28 13:01:01;;;;;;;6.35;5.55;;;;;;;;;;5105958;27;42197;-65
2023/07/28 13:03:30;;;;;;;6.10;5.30;;;;;;;;;;5106064;27;42686;-65
2023/07/28 13:06:00;;;;;;;6.40;5.80;;;;;;;;;;5106800;27;42825;-64
2023/07/28 13:08:28;;;;;;;6.00;5.50;;;;;;;;;;5105274;27;41989;-65
2023/07/28 13:10:59;;;;;;;9.07;5.97;;;;;;;;;;5106657;27;43660;-65
2023/07/28 13:13:30;;;;;;;8.65;5.65;;;;;;;;;;5107102;27;41781;-65
2023/07/28 13:15:58;;;;;;;6.13;5.43;;;;;;;;;;5109670;27;41673;-65
2023/07/28 13:18:26;;;;;;;6.40;5.55;;;;;;;;;;5109870;27;42885;-65
2023/07/28 13:20:54;;;;;;;5.60;5.07;;;;;;;;;;5109773;27;42419;-65
2023/07/28 13:23:23;;;;;;;6.20;5.60;;;;;;;;;;5103144;27;42637;-66
2023/07/28 13:25:51;;;;;;;6.90;5.72;;;;;;;;;;5105863;27;41932;-64
2023/07/28 13:28:19;;;;;;;10.40;5.10;;;;;;;;;;5102609;27;41160;-66
2023/07/28 13:30:48;;;;;;;8.00;5.55;;;;;;;;;;5088238;28;41992;-66
2023/07/28 13:33:16;;;;;;;14.38;5.72;;;;;;;;;;5105149;28;41323;-65
2023/07/28 13:35:44;;;;;;;9.73;5.88;;;;;;;;;;5108880;27;41657;-64
2023/07/28 13:38:12;;;;;;;8.30;5.97;;;;;;;;;;5110023;27;42530;-65
2023/07/28 13:40:41;;;;;;;10.50;5.72;;;;;;;;;;5093936;27;40563;-65
2023/07/28 13:43:09;;;;;;;6.97;6.03;;;;;;;;;;5098301;28;41362;-65
2023/07/28 13:45:44;;;;;;;8.23;6.25;;;;;;;;;;5100359;28;42855;-65
2023/07/28 13:48:12;;;;;;;6.93;6.22;;;;;;;;;;5097327;28;41563;-64
2023/07/28 13:50:43;;;;;;;9.60;6.88;;;;;;;;;;5100639;27;41836;-65
2023/07/28 13:53:23;;;;;;;8.20;6.05;;;;;;;;;;5104169;28;42423;-65
2023/07/28 13:55:55;;;;;;;9.32;6.55;;;;;;;;;;5100742;27;41894;-65
2023/07/28 13:58:25;;;;;;;7.15;6.10;;;;;;;;;;5101655;27;42763;-65
2023/07/28 14:00:53;;;;;;;7.45;6.20;;;;;;;;;;5100843;27;40915;-65
2023/07/28 14:03:21;;;;;;;8.90;5.95;;;;;;;;;;5098023;28;42304;-65
2023/07/28 14:05:49;;;;;;;7.45;5.72;;;;;;;;;;5102947;28;43115;-64
2023/07/28 14:08:17;;;;;;;7.82;5.82;;;;;;;;;;5108667;27;41277;-65
2023/07/28 14:10:46;;;;;;;7.13;5.65;;;;;;;;;;5107025;27;42243;-65
2023/07/28 14:13:15;;;;;;;6.32;5.72;;;;;;;;;;5109471;27;42591;-64
2023/07/28 14:15:43;;;;;;;6.35;5.47;;;;;;;;;;5107967;27;41690;-64
2023/07/28 14:18:12;;;;;;;7.25;5.80;;;;;;;;;;5107511;27;41703;-64
2023/07/28 14:20:40;;;;;;;7.38;5.60;;;;;;;;;;5108130;27;41396;-64
2023/07/28 14:23:24;;;;;;;7.57;5.38;;;;;;;;;;5107293;27;42750;-64
2023/07/28 14:25:52;;;;;;;6.47;5.78;;;;;;;;;;5108014;27;43818;-65
2023/07/28 14:28:21;;;;;;;6.82;5.78;;;;;;;;;;5106945;27;41280;-64
2023/07/28 14:30:51;;;;;;;7.53;5.72;;;;;;;;;;5108154;27;41638;-65
2023/07/28 14:33:19;;;;;;;5.45;4.95;;;;;;;;;;5105747;27;41760;-65
2023/07/28 14:35:48;;;;;;;6.65;5.47;;;;;;;;;;5108593;27;41913;-64
2023/07/28 14:38:16;;;;;;;15.10;5.10;;;;;;;;;;5109034;27;42299;-65
2023/07/28 14:40:47;;;;;;;7.03;4.97;;;;;;;;;;5107387;27;40750;-64
2023/07/28 14:43:16;;;;;;;5.32;4.80;;;;;;;;;;5108406;27;42183;-64
2023/07/28 14:45:45;;;;;;;6.10;4.97;;;;;;;;;;5108137;27;42514;-65
2023/07/28 14:48:13;;;;;;;5.95;4.95;;;;;;;;;;5108605;27;41830;-64
2023/07/28 14:50:41;;;;;;;13.60;5.30;;;;;;;;;;5107860;27;42641;-64
2023/07/28 14:53:27;;;;;;;6.15;5.45;;;;;;;;;;5107676;27;43157;-65
2023/07/28 14:55:55;;;;;;;5.65;4.30;;;;;;;;;;5108357;27;40723;-65